createdAt,value
2022-09-11T00:00:15.858Z,98154.13
2022-09-11T00:02:22.935Z,98154.66
2022-09-11T00:04:27.857Z,98154.44
2022-09-11T00:06:35.523Z,98149.06
2022-09-11T00:08:41.377Z,98147.91
2022-09-11T00:10:48.299Z,98148.63
2022-09-11T00:12:53.237Z,98142.53
2022-09-11T00:14:58.050Z,98144.31
2022-09-11T00:17:02.805Z,98139.91
2022-09-11T00:19:09.786Z,98145.28
2022-09-11T00:21:14.623Z,98145.50
2022-09-11T00:23:23.369Z,98148.13
2022-09-11T00:25:28.140Z,98149.81
2022-09-11T00:27:32.931Z,98147.78
2022-09-11T00:29:37.665Z,98145.78
2022-09-11T00:31:42.639Z,98143.06
2022-09-11T00:33:48.129Z,98144.63
2022-09-11T00:35:59.099Z,98140.22
2022-09-11T00:38:03.880Z,98133.28
2022-09-11T00:40:12.728Z,98137.78
2022-09-11T00:42:17.570Z,98130.88
2022-09-11T00:44:52.394Z,98138.00
2022-09-11T00:46:59.608Z,98129.50
2022-09-11T00:49:12.571Z,98138.66
2022-09-11T00:51:17.381Z,98136.03
2022-09-11T00:53:26.189Z,98139.50
2022-09-11T00:55:37.960Z,98126.25
2022-09-11T00:57:47.656Z,98134.97
2022-09-11T00:59:55.577Z,98131.69
2022-09-11T01:02:00.784Z,98128.75
2022-09-11T01:04:07.196Z,98129.28
2022-09-11T01:06:12.809Z,98128.22
2022-09-11T01:08:17.710Z,98128.75
2022-09-11T01:10:23.462Z,98128.78
2022-09-11T01:12:41.537Z,98139.63
2022-09-11T01:14:53.150Z,98143.59
2022-09-11T01:17:11.296Z,98153.28
2022-09-11T01:19:30.225Z,98158.28
2022-09-11T01:22:04.547Z,98159.25
2022-09-11T01:24:24.523Z,98152.91
2022-09-11T01:26:45.466Z,98152.00
2022-09-11T01:28:59.098Z,98140.97
2022-09-11T01:31:11.235Z,98146.03
2022-09-11T01:33:25.470Z,98145.06
2022-09-11T01:35:43.599Z,98135.59
2022-09-11T01:37:57.559Z,98143.38
2022-09-11T01:40:08.499Z,98146.84
2022-09-11T01:42:20.263Z,98137.59
2022-09-11T01:44:31.865Z,98135.31
2022-09-11T01:46:41.402Z,98134.75
2022-09-11T01:48:51.440Z,98129.69
2022-09-11T01:50:58.986Z,98122.97
2022-09-11T01:53:09.782Z,98122.88
2022-09-11T01:55:21.906Z,98122.59
2022-09-11T01:57:30.530Z,98121.44
2022-09-11T01:59:44.107Z,98114.91
2022-09-11T02:01:54.021Z,98110.47
2022-09-11T02:04:05.233Z,98112.59
2022-09-11T02:06:20.570Z,98116.09
2022-09-11T02:08:31.559Z,98119.63
2022-09-11T02:10:41.285Z,98109.13
2022-09-11T02:12:52.324Z,98110.91
2022-09-11T02:15:00.241Z,98118.38
2022-09-11T02:17:13.643Z,98105.13
2022-09-11T02:19:21.335Z,98104.06
2022-09-11T02:21:26.319Z,98103.00
2022-09-11T02:23:31.087Z,98103.84
2022-09-11T02:25:35.913Z,98093.22
2022-09-11T02:27:43.467Z,98103.13
2022-09-11T02:29:48.407Z,98100.41
2022-09-11T02:31:56.955Z,98110.38
2022-09-11T02:34:01.816Z,98103.53
2022-09-11T02:36:24.809Z,98108.50
2022-09-11T02:38:35.883Z,98109.56
2022-09-11T02:40:51.855Z,98106.50
2022-09-11T02:43:20.231Z,98104.28
2022-09-11T02:45:36.290Z,98105.25
2022-09-11T02:47:59.804Z,98102.41
2022-09-11T02:50:11.293Z,98099.88
2022-09-11T02:52:28.725Z,98099.56
2022-09-11T02:54:42.270Z,98095.63
2022-09-11T02:56:52.324Z,98096.81
2022-09-11T02:59:02.209Z,98098.25
2022-09-11T03:01:11.905Z,98097.56
2022-09-11T03:03:21.287Z,98107.41
2022-09-11T03:05:26.232Z,98098.38
2022-09-11T03:07:31.187Z,98098.09
2022-09-11T03:09:36.779Z,98109.31
2022-09-11T03:11:47.707Z,98114.16
2022-09-11T03:13:52.437Z,98125.94
2022-09-11T03:15:57.502Z,98128.47
2022-09-11T03:18:02.315Z,98124.78
2022-09-11T03:20:11.323Z,98126.75
2022-09-11T03:22:16.151Z,98123.94
2022-09-11T03:24:20.937Z,98130.44
2022-09-11T03:26:29.751Z,98128.66
2022-09-11T03:28:35.513Z,98129.69
2022-09-11T03:30:44.355Z,98136.81
2022-09-11T03:32:49.158Z,98134.41
2022-09-11T03:34:54.057Z,98134.41
2022-09-11T03:37:02.295Z,98134.91
2022-09-11T03:39:07.881Z,98133.13
2022-09-11T03:41:14.039Z,98127.22
2022-09-11T03:43:19.491Z,98133.84
2022-09-11T03:45:24.380Z,98135.75
2022-09-11T03:47:29.243Z,98127.53
2022-09-11T03:49:34.001Z,98131.94
2022-09-11T03:51:38.938Z,98134.88
2022-09-11T03:53:47.170Z,98144.13
2022-09-11T03:55:52.869Z,98147.25
2022-09-11T03:57:58.394Z,98147.34
2022-09-11T04:00:04.012Z,98149.22
2022-09-11T04:02:25.374Z,98153.84
2022-09-11T04:04:33.034Z,98156.34
2022-09-11T04:06:38.301Z,98160.69
2022-09-11T04:08:46.372Z,98160.88
2022-09-11T04:10:51.639Z,98151.41
2022-09-11T04:12:56.487Z,98162.75
2022-09-11T04:15:02.297Z,98167.81
2022-09-11T04:17:09.425Z,98170.16
2022-09-11T04:19:17.471Z,98168.44
2022-09-11T04:21:22.325Z,98166.78
2022-09-11T04:23:30.353Z,98172.41
2022-09-11T04:25:39.050Z,98177.94
2022-09-11T04:27:44.818Z,98177.88
2022-09-11T04:29:53.627Z,98175.88
2022-09-11T04:31:59.386Z,98176.72
2022-09-11T04:34:08.275Z,98177.66
2022-09-11T04:36:18.108Z,98178.94
2022-09-11T04:38:24.030Z,98175.47
2022-09-11T04:40:28.817Z,98180.53
2022-09-11T04:42:36.199Z,98183.56
2022-09-11T04:44:41.004Z,98181.69
2022-09-11T04:46:45.848Z,98182.22
2022-09-11T04:48:52.743Z,98190.00
2022-09-11T04:51:06.276Z,98195.34
2022-09-11T04:53:11.032Z,98199.53
2022-09-11T04:55:16.110Z,98197.47
2022-09-11T04:57:21.270Z,98199.88
2022-09-11T04:59:28.641Z,98206.28
2022-09-11T05:01:46.392Z,98203.56
2022-09-11T05:03:53.209Z,98207.03
2022-09-11T05:05:58.061Z,98206.28
2022-09-11T05:08:04.047Z,98211.31
2022-09-11T05:10:11.217Z,98219.25
2022-09-11T05:12:16.061Z,98218.44
2022-09-11T05:14:21.109Z,98217.91
2022-09-11T05:16:34.475Z,98215.84
2022-09-11T05:18:39.999Z,98223.31
2022-09-11T05:20:44.876Z,98218.47
2022-09-11T05:22:50.606Z,98220.91
2022-09-11T05:24:56.011Z,98222.59
2022-09-11T05:27:01.338Z,98220.38
2022-09-11T05:29:09.303Z,98223.00
2022-09-11T05:31:22.076Z,98228.97
2022-09-11T05:33:30.526Z,98225.31
2022-09-11T05:35:35.930Z,98236.22
2022-09-11T05:37:41.471Z,98239.47
2022-09-11T05:39:47.517Z,98241.69
2022-09-11T05:41:55.400Z,98247.16
2022-09-11T05:44:02.848Z,98244.13
2022-09-11T05:46:11.323Z,98254.00
2022-09-11T05:48:16.583Z,98254.63
2022-09-11T05:50:24.451Z,98255.63
2022-09-11T05:52:29.894Z,98258.91
2022-09-11T05:54:35.071Z,98259.44
2022-09-11T05:56:41.621Z,98266.19
2022-09-11T05:58:54.933Z,98266.75
2022-09-11T06:01:09.497Z,98271.13
2022-09-11T06:03:16.105Z,98273.94
2022-09-11T06:05:23.995Z,98280.06
2022-09-11T06:07:29.130Z,98284.25
2022-09-11T06:09:33.954Z,98282.88
2022-09-11T06:11:39.709Z,98283.28
2022-09-11T06:13:47.464Z,98289.28
2022-09-11T06:15:52.702Z,98288.78
2022-09-11T06:17:58.208Z,98298.84
2022-09-11T06:20:03.102Z,98294.88
2022-09-11T06:22:10.553Z,98300.78
2022-09-11T06:24:18.769Z,98303.06
2022-09-11T06:26:26.211Z,98303.59
2022-09-11T06:28:31.677Z,98304.56
2022-09-11T06:30:37.455Z,98304.78
2022-09-11T06:32:42.357Z,98307.44
2022-09-11T06:34:47.318Z,98301.50
2022-09-11T06:36:53.129Z,98312.16
2022-09-11T06:39:02.355Z,98305.31
2022-09-11T06:41:12.307Z,98307.66
2022-09-11T06:43:17.478Z,98314.09
2022-09-11T06:45:22.310Z,98314.53
2022-09-11T06:47:27.287Z,98318.53
2022-09-11T06:49:32.208Z,98325.25
2022-09-11T06:52:12.312Z,98329.16
2022-09-11T06:54:22.952Z,98326.28
2022-09-11T06:56:32.514Z,98330.50
2022-09-11T06:58:39.706Z,98332.44
2022-09-11T07:00:44.964Z,98329.19
2022-09-11T07:02:51.480Z,98333.91
2022-09-11T07:04:56.322Z,98336.81
2022-09-11T07:07:05.198Z,98344.91
2022-09-11T07:09:14.397Z,98338.47
2022-09-11T07:11:32.421Z,98344.19
2022-09-11T07:13:38.255Z,98349.56
2022-09-11T07:15:44.727Z,98351.84
2022-09-11T07:17:50.008Z,98358.03
2022-09-11T07:19:54.758Z,98361.72
2022-09-11T07:22:00.010Z,98354.59
2022-09-11T07:24:07.186Z,98356.06
2022-09-11T07:26:16.527Z,98353.13
2022-09-11T07:28:25.532Z,98354.28
2022-09-11T07:30:45.588Z,98358.81
2022-09-11T07:32:51.095Z,98358.72
2022-09-11T07:34:56.669Z,98346.84
2022-09-11T07:37:01.483Z,98356.31
2022-09-11T07:39:07.037Z,98366.00
2022-09-11T07:41:17.240Z,98366.13
2022-09-11T07:43:26.649Z,98363.19
2022-09-11T07:45:32.441Z,98366.44
2022-09-11T07:47:38.653Z,98374.28
2022-09-11T07:49:45.850Z,98374.03
2022-09-11T07:51:52.493Z,98373.41
2022-09-11T07:54:04.271Z,98381.19
2022-09-11T07:56:12.689Z,98380.03
2022-09-11T07:58:18.004Z,98380.34
2022-09-11T08:00:25.674Z,98382.81
2022-09-11T08:02:43.019Z,98381.09
2022-09-11T08:04:47.825Z,98380.16
2022-09-11T08:06:52.570Z,98382.69
2022-09-11T08:09:07.824Z,98385.00
2022-09-11T08:11:18.181Z,98399.94
2022-09-11T08:13:22.981Z,98395.00
2022-09-11T08:15:30.626Z,98393.41
2022-09-11T08:17:35.442Z,98401.31
2022-09-11T08:19:40.749Z,98400.81
2022-09-11T08:21:47.870Z,98402.47
2022-09-11T08:23:53.022Z,98405.69
2022-09-11T08:25:59.277Z,98412.94
2022-09-11T08:28:04.374Z,98410.91
2022-09-11T08:30:12.817Z,98413.28
2022-09-11T08:32:20.314Z,98413.06
2022-09-11T08:34:25.115Z,98411.16
2022-09-11T08:36:30.691Z,98413.28
2022-09-11T08:38:36.118Z,98416.53
2022-09-11T08:40:41.692Z,98422.16
2022-09-11T08:42:48.258Z,98422.34
2022-09-11T08:44:57.688Z,98427.88
2022-09-11T08:47:16.665Z,98429.34
2022-09-11T08:49:27.604Z,98434.41
2022-09-11T08:51:34.355Z,98432.41
2022-09-11T08:53:41.796Z,98427.13
2022-09-11T08:55:51.506Z,98433.88
2022-09-11T08:58:06.632Z,98434.09
2022-09-11T09:00:21.714Z,98431.75
2022-09-11T09:02:57.016Z,98434.41
2022-09-11T09:05:23.223Z,98432.59
2022-09-11T09:07:32.264Z,98436.38
2022-09-11T09:09:47.937Z,98441.44
2022-09-11T09:12:02.291Z,98441.78
2022-09-11T09:14:29.279Z,98441.63
2022-09-11T09:16:47.205Z,98439.13
2022-09-11T09:19:01.052Z,98450.00
2022-09-11T09:21:15.795Z,98445.00
2022-09-11T09:23:22.555Z,98443.13
2022-09-11T09:25:29.336Z,98448.13
2022-09-11T09:27:48.035Z,98447.06
2022-09-11T09:29:56.543Z,98447.94
2022-09-11T09:32:07.582Z,98442.22
2022-09-11T09:34:19.885Z,98444.00
2022-09-11T09:36:33.374Z,98440.31
2022-09-11T09:38:38.768Z,98448.56
2022-09-11T09:40:47.156Z,98442.31
2022-09-11T09:43:11.138Z,98444.41
2022-09-11T09:45:37.615Z,98440.94
2022-09-11T09:47:45.997Z,98444.22
2022-09-11T09:49:51.549Z,98437.84
2022-09-11T09:52:04.544Z,98446.63
2022-09-11T09:54:17.768Z,98447.72
2022-09-11T09:56:23.922Z,98448.97
2022-09-11T09:58:34.993Z,98444.59
2022-09-11T10:00:42.678Z,98438.47
2022-09-11T10:02:49.332Z,98441.44
2022-09-11T10:05:10.739Z,98442.94
2022-09-11T10:07:24.480Z,98441.13
2022-09-11T10:09:31.313Z,98433.03
2022-09-11T10:11:36.106Z,98435.59
2022-09-11T10:13:44.009Z,98432.81
2022-09-11T10:15:52.101Z,98432.88
2022-09-11T10:18:21.882Z,98433.91
2022-09-11T10:20:32.973Z,98434.56
2022-09-11T10:22:40.467Z,98435.00
2022-09-11T10:24:45.691Z,98436.44
2022-09-11T10:26:54.282Z,98433.84
2022-09-11T10:29:03.828Z,98437.78
2022-09-11T10:31:09.106Z,98435.44
2022-09-11T10:33:26.424Z,98434.50
2022-09-11T10:35:33.372Z,98430.44
2022-09-11T10:37:40.917Z,98425.16
2022-09-11T10:39:49.286Z,98425.50
2022-09-11T10:41:59.424Z,98419.63
2022-09-11T10:44:05.696Z,98432.13
2022-09-11T10:46:28.352Z,98425.75
2022-09-11T10:48:33.474Z,98427.41
2022-09-11T10:50:38.366Z,98430.06
2022-09-11T10:52:58.010Z,98424.78
2022-09-11T10:55:09.193Z,98429.34
2022-09-11T10:57:20.989Z,98432.47
2022-09-11T10:59:34.919Z,98431.03
2022-09-11T11:01:40.050Z,98438.13
2022-09-11T11:03:45.477Z,98438.13
2022-09-11T11:06:03.614Z,98448.31
2022-09-11T11:08:48.701Z,98447.59
2022-09-11T11:11:08.449Z,98445.34
2022-09-11T11:13:42.131Z,98438.97
2022-09-11T11:15:57.680Z,98438.38
2022-09-11T11:18:15.015Z,98438.13
2022-09-11T11:20:37.294Z,98430.63
2022-09-11T11:23:18.525Z,98439.91
2022-09-11T11:25:30.329Z,98435.00
2022-09-11T11:28:16.969Z,98440.78
2022-09-11T11:30:24.160Z,98445.66
2022-09-11T11:32:52.743Z,98441.06
2022-09-11T11:35:15.642Z,98451.31
2022-09-11T11:37:24.069Z,98444.69
2022-09-11T11:39:36.046Z,98455.63
2022-09-11T11:41:44.974Z,98450.66
2022-09-11T11:43:51.618Z,98447.75
2022-09-11T11:46:02.231Z,98443.25
2022-09-11T11:48:15.970Z,98444.88
2022-09-11T11:50:31.857Z,98449.91
2022-09-11T11:52:46.336Z,98439.66
2022-09-11T11:55:00.090Z,98446.03
2022-09-11T11:57:13.024Z,98443.16
2022-09-11T11:59:23.302Z,98446.66
2022-09-11T12:01:37.848Z,98442.69
2022-09-11T12:03:47.536Z,98442.22
2022-09-11T12:05:52.728Z,98436.56
2022-09-11T12:07:57.286Z,98443.16
2022-09-11T12:10:07.279Z,98444.34
2022-09-11T12:12:12.816Z,98443.63
2022-09-11T12:14:29.713Z,98438.88
2022-09-11T12:16:36.750Z,98443.09
2022-09-11T12:18:42.279Z,98448.41
2022-09-11T12:20:48.144Z,98445.66
2022-09-11T12:22:53.456Z,98455.41
2022-09-11T12:25:01.158Z,98460.31
2022-09-11T12:27:37.387Z,98464.78
2022-09-11T12:29:57.752Z,98463.72
2022-09-11T12:32:25.738Z,98470.72
2022-09-11T12:35:02.769Z,98458.56
2022-09-11T12:37:09.748Z,98459.16
2022-09-11T12:39:25.817Z,98457.50
2022-09-11T12:41:33.877Z,98454.47
2022-09-11T12:43:49.957Z,98452.66
2022-09-11T12:45:57.787Z,98450.25
2022-09-11T12:48:11.688Z,98454.72
2022-09-11T12:50:21.666Z,98460.13
2022-09-11T12:52:35.812Z,98451.56
2022-09-11T12:54:44.721Z,98453.63
2022-09-11T12:56:52.645Z,98464.34
2022-09-11T12:59:01.910Z,98456.53
2022-09-11T13:01:19.054Z,98456.16
2022-09-11T13:03:28.059Z,98450.97
2022-09-11T13:05:37.856Z,98452.28
2022-09-11T13:07:46.113Z,98447.47
2022-09-11T13:09:52.371Z,98448.44
2022-09-11T13:11:59.025Z,98442.47
2022-09-11T13:14:41.943Z,98451.38
2022-09-11T13:16:50.084Z,98453.75
2022-09-11T13:18:59.417Z,98444.09
2022-09-11T13:21:15.269Z,98444.84
2022-09-11T13:23:21.223Z,98450.97
2022-09-11T13:25:28.130Z,98452.06
2022-09-11T13:27:33.505Z,98458.53
2022-09-11T13:29:42.984Z,98468.50
2022-09-11T13:31:50.471Z,98466.91
2022-09-11T13:33:55.686Z,98460.09
2022-09-11T13:36:02.683Z,98457.69
2022-09-11T13:38:10.618Z,98451.94
2022-09-11T13:40:22.524Z,98448.91
2022-09-11T13:42:28.529Z,98451.94
2022-09-11T13:44:42.479Z,98452.28
2022-09-11T13:46:55.769Z,98448.94
2022-09-11T13:49:16.266Z,98445.47
2022-09-11T13:51:24.207Z,98445.56
2022-09-11T13:53:30.092Z,98443.41
2022-09-11T13:55:35.487Z,98444.72
2022-09-11T13:57:54.356Z,98452.53
2022-09-11T14:00:00.514Z,98443.94
2022-09-11T14:02:16.124Z,98443.22
2022-09-11T14:04:21.839Z,98450.28
2022-09-11T14:06:26.589Z,98446.22
2022-09-11T14:08:35.345Z,98449.50
2022-09-11T14:10:48.573Z,98449.41
2022-09-11T14:12:59.526Z,98450.97
2022-09-11T14:15:19.378Z,98440.16
2022-09-11T14:17:27.398Z,98436.91
2022-09-11T14:19:35.361Z,98434.78
2022-09-11T14:21:43.846Z,98444.28
2022-09-11T14:23:53.319Z,98443.66
2022-09-11T14:26:16.210Z,98433.28
2022-09-11T14:28:43.348Z,98438.13
2022-09-11T14:31:06.924Z,98441.13
2022-09-11T14:33:27.065Z,98436.56
2022-09-11T14:35:32.543Z,98438.47
2022-09-11T14:37:44.079Z,98433.69
2022-09-11T14:39:51.323Z,98431.72
2022-09-11T14:41:56.617Z,98429.81
2022-09-11T14:44:01.594Z,98428.50
2022-09-11T14:46:06.677Z,98416.94
2022-09-11T14:48:14.425Z,98410.28
2022-09-11T14:50:21.904Z,98406.25
2022-09-11T14:52:30.355Z,98405.38
2022-09-11T14:54:35.147Z,98404.19
2022-09-11T14:56:40.702Z,98397.28
2022-09-11T14:58:46.520Z,98402.19
2022-09-11T15:00:51.388Z,98402.69
2022-09-11T15:02:56.157Z,98405.16
2022-09-11T15:05:01.252Z,98404.81
2022-09-11T15:07:08.758Z,98413.41
2022-09-11T15:09:13.578Z,98406.28
2022-09-11T15:11:18.360Z,98408.81
2022-09-11T15:13:23.694Z,98401.56
2022-09-11T15:15:33.362Z,98404.69
2022-09-11T15:17:38.339Z,98404.56
2022-09-11T15:19:45.811Z,98404.72
2022-09-11T15:21:50.541Z,98401.75
2022-09-11T15:23:58.908Z,98396.56
2022-09-11T15:26:05.689Z,98401.25
2022-09-11T15:28:10.716Z,98400.88
2022-09-11T15:30:15.462Z,98400.00
2022-09-11T15:32:20.607Z,98391.72
2022-09-11T15:34:27.348Z,98397.59
2022-09-11T15:36:32.079Z,98393.78
2022-09-11T15:38:36.920Z,98394.06
2022-09-11T15:40:44.275Z,98392.88
2022-09-11T15:42:50.068Z,98403.44
2022-09-11T15:44:56.381Z,98400.56
2022-09-11T15:47:02.107Z,98398.03
2022-09-11T15:49:06.870Z,98395.03
2022-09-11T15:51:13.405Z,98388.44
2022-09-11T15:53:18.526Z,98398.31
2022-09-11T15:55:23.099Z,98393.88
2022-09-11T15:57:31.077Z,98391.38
2022-09-11T15:59:36.261Z,98396.66
2022-09-11T16:01:40.921Z,98395.44
2022-09-11T16:03:46.017Z,98393.41
2022-09-11T16:05:50.739Z,98396.25
2022-09-11T16:07:55.596Z,98398.47
2022-09-11T16:10:00.512Z,98397.25
2022-09-11T16:12:05.889Z,98399.53
2022-09-11T16:14:19.532Z,98400.03
2022-09-11T16:16:24.510Z,98401.69
2022-09-11T16:18:29.435Z,98402.78
2022-09-11T16:20:34.292Z,98390.53
2022-09-11T16:22:39.034Z,98398.31
2022-09-11T16:24:43.902Z,98400.84
2022-09-11T16:26:48.953Z,98402.41
2022-09-11T16:28:53.527Z,98404.09
2022-09-11T16:31:01.033Z,98399.06
2022-09-11T16:33:05.865Z,98394.75
2022-09-11T16:35:13.455Z,98401.13
2022-09-11T16:37:18.445Z,98399.31
2022-09-11T16:39:23.524Z,98398.72
2022-09-11T16:41:28.192Z,98391.38
2022-09-11T16:43:33.395Z,98392.22
2022-09-11T16:45:40.003Z,98392.59
2022-09-11T16:47:47.464Z,98388.16
2022-09-11T16:50:09.174Z,98393.19
2022-09-11T16:52:14.055Z,98389.97
2022-09-11T16:54:19.183Z,98392.34
2022-09-11T16:56:25.924Z,98391.03
2022-09-11T16:58:31.314Z,98395.09
2022-09-11T17:00:36.256Z,98388.81
2022-09-11T17:02:40.978Z,98394.38
2022-09-11T17:04:48.355Z,98390.16
2022-09-11T17:06:53.465Z,98388.59
2022-09-11T17:08:59.220Z,98391.63
2022-09-11T17:11:05.904Z,98388.25
2022-09-11T17:13:10.991Z,98394.13
2022-09-11T17:15:15.801Z,98393.19
2022-09-11T17:17:20.534Z,98390.41
2022-09-11T17:19:25.350Z,98392.22
2022-09-11T17:21:37.843Z,98391.47
2022-09-11T17:23:42.651Z,98389.34
2022-09-11T17:25:48.301Z,98390.41
2022-09-11T17:27:53.338Z,98394.53
2022-09-11T17:29:57.948Z,98389.13
2022-09-11T17:32:26.151Z,98399.22
2022-09-11T17:34:27.623Z,98390.06
2022-09-11T17:36:35.451Z,98389.63
2022-09-11T17:38:41.230Z,98383.59
2022-09-11T17:40:46.271Z,98397.88
2022-09-11T17:42:51.182Z,98398.88
2022-09-11T17:44:56.399Z,98401.75
2022-09-11T17:47:02.420Z,98398.84
2022-09-11T17:49:07.368Z,98404.72
2022-09-11T17:51:14.254Z,98403.47
2022-09-11T17:53:22.366Z,98406.22
2022-09-11T17:55:27.079Z,98410.66
2022-09-11T17:57:32.436Z,98410.81
2022-09-11T17:59:37.204Z,98410.91
2022-09-11T18:01:43.276Z,98412.09
2022-09-11T18:03:53.029Z,98408.75
2022-09-11T18:05:59.012Z,98409.06
2022-09-11T18:08:03.787Z,98417.34
2022-09-11T18:10:12.212Z,98420.09
2022-09-11T18:12:17.368Z,98425.84
2022-09-11T18:14:21.922Z,98424.97
2022-09-11T18:16:26.918Z,98433.34
2022-09-11T18:18:31.536Z,98443.38
2022-09-11T18:20:38.206Z,98438.47
2022-09-11T18:22:43.027Z,98437.00
2022-09-11T18:24:49.729Z,98450.63
2022-09-11T18:27:00.724Z,98451.69
2022-09-11T18:29:09.880Z,98443.41
2022-09-11T18:31:14.909Z,98458.94
2022-09-11T18:33:19.683Z,98453.00
2022-09-11T18:35:24.507Z,98460.31
2022-09-11T18:37:29.371Z,98450.09
2022-09-11T18:39:34.212Z,98451.16
2022-09-11T18:41:38.985Z,98449.47
2022-09-11T18:43:46.434Z,98451.97
2022-09-11T18:45:51.194Z,98456.13
2022-09-11T18:47:56.051Z,98462.56
2022-09-11T18:50:01.117Z,98469.13
2022-09-11T18:52:07.305Z,98461.53
2022-09-11T18:54:15.282Z,98465.97
2022-09-11T18:56:20.491Z,98466.09
2022-09-11T18:58:25.013Z,98467.34
2022-09-11T19:00:32.856Z,98470.09
2022-09-11T19:02:37.902Z,98466.00
2022-09-11T19:04:42.658Z,98472.41
2022-09-11T19:06:48.291Z,98478.09
2022-09-11T19:08:54.820Z,98480.03
2022-09-11T19:11:00.297Z,98479.38
2022-09-11T19:13:05.258Z,98480.56
2022-09-11T19:15:11.300Z,98482.03
2022-09-11T19:17:18.703Z,98486.66
2022-09-11T19:19:23.728Z,98488.88
2022-09-11T19:21:28.647Z,98493.72
2022-09-11T19:23:34.238Z,98492.28
2022-09-11T19:25:39.085Z,98494.22
2022-09-11T19:27:43.825Z,98483.03
2022-09-11T19:29:50.098Z,98491.66
2022-09-11T19:31:55.385Z,98485.22
2022-09-11T19:34:04.539Z,98486.94
2022-09-11T19:36:11.979Z,98488.81
2022-09-11T19:38:16.754Z,98494.94
2022-09-11T19:40:21.678Z,98494.09
2022-09-11T19:42:27.149Z,98487.25
2022-09-11T19:44:34.485Z,98490.06
2022-09-11T19:46:41.090Z,98485.22
2022-09-11T19:48:47.057Z,98489.66
2022-09-11T19:50:54.847Z,98487.78
2022-09-11T19:53:00.379Z,98488.16
2022-09-11T19:55:05.235Z,98489.03
2022-09-11T19:57:10.067Z,98484.69
2022-09-11T19:59:15.680Z,98487.31
2022-09-11T20:01:22.490Z,98482.25
2022-09-11T20:03:27.723Z,98487.94
2022-09-11T20:05:32.534Z,98480.16
2022-09-11T20:07:40.527Z,98484.47
2022-09-11T20:09:45.274Z,98478.56
2022-09-11T20:11:50.180Z,98486.56
2022-09-11T20:13:55.376Z,98483.94
2022-09-11T20:16:04.399Z,98485.28
2022-09-11T20:18:10.409Z,98482.09
2022-09-11T20:20:15.374Z,98482.09
2022-09-11T20:22:22.065Z,98488.22
2022-09-11T20:24:29.638Z,98486.53
2022-09-11T20:26:34.623Z,98486.53
2022-09-11T20:28:39.552Z,98491.25
2022-09-11T20:30:44.367Z,98496.16
2022-09-11T20:32:49.212Z,98494.56
2022-09-11T20:34:54.173Z,98492.13
2022-09-11T20:37:00.896Z,98495.72
2022-09-11T20:39:06.236Z,98491.50
2022-09-11T20:41:15.689Z,98494.78
2022-09-11T20:43:20.490Z,98493.84
2022-09-11T20:45:25.281Z,98484.91
2022-09-11T20:47:30.034Z,98487.34
2022-09-11T20:49:34.786Z,98478.38
2022-09-11T20:51:39.710Z,98487.97
2022-09-11T20:53:45.712Z,98481.69
2022-09-11T20:55:50.781Z,98481.69
2022-09-11T20:58:00.605Z,98478.94
2022-09-11T21:00:06.531Z,98479.06
2022-09-11T21:02:12.542Z,98482.59
2022-09-11T21:04:17.489Z,98484.72
2022-09-11T21:06:26.133Z,98482.16
2022-09-11T21:08:31.275Z,98488.59
2022-09-11T21:10:38.669Z,98482.56
2022-09-11T21:12:43.470Z,98489.00
2022-09-11T21:14:50.915Z,98484.75
2022-09-11T21:16:55.773Z,98483.19
2022-09-11T21:19:02.498Z,98488.63
2022-09-11T21:21:07.992Z,98488.00
2022-09-11T21:23:12.819Z,98499.75
2022-09-11T21:25:17.638Z,98489.59
2022-09-11T21:27:22.413Z,98488.38
2022-09-11T21:29:27.269Z,98494.22
2022-09-11T21:31:35.291Z,98498.75
2022-09-11T21:33:41.168Z,98500.41
2022-09-11T21:35:46.063Z,98493.16
2022-09-11T21:37:50.942Z,98499.38
2022-09-11T21:39:55.795Z,98492.81
2022-09-11T21:42:00.608Z,98492.34
2022-09-11T21:44:05.835Z,98496.13
2022-09-11T21:46:11.226Z,98497.72
2022-09-11T21:48:18.531Z,98496.22
2022-09-11T21:50:23.271Z,98508.31
2022-09-11T21:52:28.189Z,98497.72
2022-09-11T21:54:32.912Z,98504.47
2022-09-11T21:56:37.662Z,98507.03
2022-09-11T21:58:42.576Z,98505.13
2022-09-11T22:00:48.534Z,98496.59
2022-09-11T22:02:53.351Z,98503.81
2022-09-11T22:05:01.073Z,98504.78
2022-09-11T22:07:06.660Z,98505.50
2022-09-11T22:09:11.483Z,98501.97
2022-09-11T22:11:17.313Z,98502.16
2022-09-11T22:13:22.739Z,98500.56
2022-09-11T22:15:27.500Z,98497.81
2022-09-11T22:17:32.324Z,98500.56
2022-09-11T22:19:37.115Z,98494.53
2022-09-11T22:21:44.483Z,98498.66
2022-09-11T22:23:49.298Z,98506.53
2022-09-11T22:26:01.253Z,98494.28
2022-09-11T22:28:06.310Z,98502.16
2022-09-11T22:30:11.986Z,98498.00
2022-09-11T22:32:16.742Z,98493.78
2022-09-11T22:34:21.574Z,98494.63
2022-09-11T22:36:28.847Z,98494.63
2022-09-11T22:38:36.645Z,98493.97
2022-09-11T22:40:41.558Z,98499.50
2022-09-11T22:42:47.022Z,98496.97
2022-09-11T22:44:51.887Z,98499.59
2022-09-11T22:46:56.743Z,98499.69
2022-09-11T22:49:03.444Z,98494.53
2022-09-11T22:51:08.583Z,98492.66
2022-09-11T22:53:13.126Z,98495.66
2022-09-11T22:55:20.733Z,98486.06
2022-09-11T22:57:28.976Z,98489.84
2022-09-11T22:59:34.078Z,98485.59
2022-09-11T23:01:40.085Z,98486.44
2022-09-11T23:03:45.108Z,98490.78
2022-09-11T23:06:02.313Z,98481.19
2022-09-11T23:08:07.211Z,98480.63
2022-09-11T23:10:13.627Z,98482.41
2022-09-11T23:12:21.018Z,98488.50
2022-09-11T23:14:25.905Z,98478.00
2022-09-11T23:16:32.574Z,98478.75
2022-09-11T23:18:37.328Z,98484.31
2022-09-11T23:20:42.424Z,98487.00
2022-09-11T23:22:47.236Z,98480.16
2022-09-11T23:24:52.019Z,98477.63
2022-09-11T23:26:56.800Z,98483.81
2022-09-11T23:29:04.284Z,98486.34
2022-09-11T23:31:15.197Z,98483.72
2022-09-11T23:33:20.034Z,98486.44
2022-09-11T23:35:25.095Z,98483.81
2022-09-11T23:37:30.014Z,98475.53
2022-09-11T23:39:35.088Z,98476.63
2022-09-11T23:41:39.925Z,98476.88
2022-09-11T23:43:45.207Z,98478.13
2022-09-11T23:45:52.857Z,98475.50
2022-09-11T23:47:57.618Z,98478.19
2022-09-11T23:50:02.969Z,98479.16
2022-09-11T23:52:08.226Z,98474.81
2022-09-11T23:54:13.030Z,98473.03
2022-09-11T23:56:18.074Z,98473.91
2022-09-11T23:58:22.988Z,98475.66
